Time;durP1;ratioP1;P1;durP2;ratioP2;P2;SDS_P1;SDS_P2;PMS_P1;PMS_P2;Temp;Humidity;BMP_temperature;BMP_pressure;BME280_temperature;BME280_humidity;BME280_pressure;Samples;Min_cycle;Max_cycle;Signal;HPM_P1;HPM_P2
2023/06/09 00:00:19;;;;;;;4.22;3.10;;;;;;;19.88;53.29;94783.63;5086120;28;20118;-77
2023/06/09 00:02:48;;;;;;;3.85;3.03;;;;;;;19.83;53.72;94780.81;5084053;28;20130;-78
2023/06/09 00:05:15;;;;;;;6.70;3.10;;;;;;;19.82;53.62;94776.50;5084804;28;20051;-77
2023/06/09 00:07:40;;;;;;;6.22;3.22;;;;;;;19.69;54.12;94771.38;5085934;28;20024;-77
2023/06/09 00:10:06;;;;;;;5.13;3.45;;;;;;;19.76;53.64;94784.84;5085894;28;20046;-77
2023/06/09 00:12:31;;;;;;;3.80;2.92;;;;;;;19.75;53.65;94777.00;5086273;28;20516;-78
2023/06/09 00:14:58;;;;;;;4.50;3.45;;;;;;;19.74;53.97;94787.38;5085543;28;20016;-78
2023/06/09 00:17:24;;;;;;;4.78;3.17;;;;;;;19.70;53.92;94781.28;5085694;28;20024;-78
2023/06/09 00:19:52;;;;;;;3.85;3.15;;;;;;;19.69;53.95;94779.75;5067044;28;20066;-78
2023/06/09 00:22:19;;;;;;;8.68;3.65;;;;;;;19.66;53.85;94788.34;5085988;28;20032;-78
2023/06/09 00:24:45;;;;;;;5.18;3.15;;;;;;;19.55;54.59;94783.44;5085079;28;20046;-78
2023/06/09 00:27:11;;;;;;;4.07;2.80;;;;;;;19.53;54.39;94778.38;5083896;28;20024;-78
2023/06/09 00:29:36;;;;;;;5.60;3.30;;;;;;;19.52;54.34;94787.25;5085031;28;20027;-78
2023/06/09 00:32:03;;;;;;;5.20;3.20;;;;;;;19.50;54.37;94787.75;5085160;28;20094;-77
2023/06/09 00:34:28;;;;;;;5.57;2.95;;;;;;;19.47;54.52;94788.75;5083850;28;20035;-77
2023/06/09 00:36:54;;;;;;;4.38;2.72;;;;;;;19.47;54.69;94785.94;5084711;28;20020;-77
2023/06/09 00:39:19;;;;;;;3.95;3.20;;;;;;;19.44;54.98;94778.59;5085389;28;20027;-77
2023/06/09 00:41:44;;;;;;;6.60;3.30;;;;;;;19.40;54.82;94783.66;5091356;28;20450;-78
2023/06/09 00:44:12;;;;;;;7.05;3.10;;;;;;;19.38;55.04;94775.00;5085945;28;20449;-77
2023/06/09 00:46:37;;;;;;;5.15;3.60;;;;;;;19.36;54.44;94778.28;5084643;28;20071;-78
2023/06/09 00:49:04;;;;;;;5.88;3.45;;;;;;;19.35;54.99;94779.56;5083465;28;20119;-77
2023/06/09 00:51:29;;;;;;;4.22;2.88;;;;;;;19.32;54.96;94777.75;5083607;28;20501;-77
2023/06/09 00:53:55;;;;;;;5.00;2.92;;;;;;;19.31;54.93;94779.03;5083415;28;20032;-77
2023/06/09 00:56:23;;;;;;;4.57;3.50;;;;;;;19.29;55.17;94773.19;5083205;28;20063;-78
2023/06/09 00:58:49;;;;;;;4.10;3.28;;;;;;;19.29;55.32;94778.00;5083680;28;20024;-79
2023/06/09 01:01:14;;;;;;;3.80;3.10;;;;;;;19.26;55.03;94774.16;5093809;28;20036;-78
2023/06/09 01:03:40;;;;;;;7.40;3.35;;;;;;;19.25;55.27;94783.03;5085089;28;20088;-78
2023/06/09 01:06:26;;;;;;;5.85;3.58;;;;;;;19.21;55.14;94774.94;5084904;28;20137;-78
2023/06/09 01:08:58;;;;;;;4.35;3.13;;;;;;;19.17;54.11;94774.38;5084658;28;20032;-78
2023/06/09 01:11:46;;;;;;;5.22;2.80;;;;;;;19.14;53.27;94769.78;5085029;28;20117;-77
2023/06/09 01:14:17;;;;;;;3.60;2.80;;;;;;;19.07;52.00;94768.25;5083345;28;20031;-78
2023/06/09 01:16:53;;;;;;;5.40;2.88;;;;;;;18.95;50.88;94765.88;5083235;28;20028;-78
2023/06/09 01:19:32;;;;;;;4.90;3.05;;;;;;;18.88;50.23;94764.31;5083274;28;20070;-79
2023/06/09 01:22:03;;;;;;;4.95;3.28;;;;;;;18.85;50.41;94765.28;5084587;28;20036;-78
2023/06/09 01:24:32;;;;;;;5.95;3.30;;;;;;;18.54;49.76;94775.16;5083320;28;20122;-78
2023/06/09 01:27:01;;;;;;;5.25;2.97;;;;;;;18.35;49.77;94771.19;5084468;28;20454;-77
2023/06/09 01:29:27;;;;;;;7.05;3.17;;;;;;;18.44;49.54;94782.16;5083025;28;20024;-78
2023/06/09 01:31:53;;;;;;;4.10;2.85;;;;;;;18.50;49.83;94784.97;5083574;28;20035;-78
2023/06/09 01:34:18;;;;;;;5.38;3.10;;;;;;;18.51;49.90;94781.69;5084224;28;20414;-78
2023/06/09 01:36:44;;;;;;;5.65;2.80;;;;;;;18.55;49.79;94784.28;5085585;28;20020;-77
2023/06/09 01:39:10;;;;;;;4.97;2.75;;;;;;;18.43;49.28;94791.75;5083521;28;20383;-77
2023/06/09 01:41:36;;;;;;;5.32;2.92;;;;;;;18.49;49.40;94791.81;5083194;28;20024;-77
2023/06/09 01:44:01;;;;;;;3.28;2.47;;;;;;;18.53;49.21;94797.94;5082946;28;20016;-78
2023/06/09 01:46:27;;;;;;;5.20;3.33;;;;;;;18.53;49.55;94789.56;5084488;28;20074;-77
2023/06/09 01:49:15;;;;;;;3.50;2.78;;;;;;;18.46;49.10;94784.44;5070292;28;20060;-78
2023/06/09 01:51:45;;;;;;;5.38;2.90;;;;;;;18.31;48.92;94793.66;5086727;28;20024;-78
2023/06/09 01:54:15;;;;;;;6.07;2.75;;;;;;;18.40;49.04;94783.63;5086932;28;20059;-78
2023/06/09 01:56:44;;;;;;;4.65;2.63;;;;;;;18.39;48.81;94788.41;5086968;28;20475;-78
2023/06/09 01:59:14;;;;;;;4.85;2.75;;;;;;;18.42;48.80;94786.69;5086576;28;20120;-78
2023/06/09 02:01:40;;;;;;;5.60;2.83;;;;;;;18.35;49.04;94790.69;5086767;28;20028;-78
2023/06/09 02:04:06;;;;;;;6.55;2.85;;;;;;;18.23;48.96;94783.44;5086581;28;20054;-78
2023/06/09 02:06:32;;;;;;;4.55;2.72;;;;;;;18.20;49.27;94776.88;5089836;28;20067;-77
2023/06/09 02:08:59;;;;;;;4.85;2.80;;;;;;;18.03;49.44;94789.84;5087375;28;20032;-77
2023/06/09 02:11:25;;;;;;;4.15;3.03;;;;;;;18.04;49.70;94783.78;5086594;28;20035;-77
2023/06/09 02:13:54;;;;;;;3.65;2.67;;;;;;;18.03;49.75;94781.50;5087734;28;20437;-77
2023/06/09 02:16:21;;;;;;;5.05;2.90;;;;;;;17.96;49.67;94788.25;5087496;28;20073;-78
2023/06/09 02:18:47;;;;;;;4.43;2.90;;;;;;;17.88;50.08;94775.25;5087655;28;20053;-78
2023/06/09 02:21:13;;;;;;;3.78;2.95;;;;;;;17.74;50.30;94788.00;5085946;28;20031;-78
2023/06/09 02:23:39;;;;;;;3.88;2.63;;;;;;;17.49;51.35;94792.19;5088173;28;20024;-77
2023/06/09 02:26:06;;;;;;;5.43;2.97;;;;;;;17.31;51.42;94790.44;5087479;28;20130;-77
2023/06/09 02:28:32;;;;;;;4.50;3.00;;;;;;;17.15;51.94;94786.19;5088455;28;20051;-77
2023/06/09 02:30:57;;;;;;;4.30;2.70;;;;;;;17.22;51.77;94783.00;5090183;28;20514;-79
2023/06/09 02:33:24;;;;;;;3.33;2.63;;;;;;;17.13;51.79;94779.56;5086136;28;20448;-77
2023/06/09 02:35:49;;;;;;;5.07;2.80;;;;;;;17.17;51.76;94777.38;5085914;28;20028;-77
2023/06/09 02:38:15;;;;;;;4.80;2.75;;;;;;;17.21;52.02;94787.03;5087505;28;20034;-78
2023/06/09 02:40:46;;;;;;;4.53;2.95;;;;;;;17.14;52.17;94789.44;5087692;28;20020;-78
2023/06/09 02:43:12;;;;;;;4.43;3.00;;;;;;;17.01;52.43;94792.53;5086414;28;20020;-78
2023/06/09 02:45:37;;;;;;;5.13;3.08;;;;;;;16.82;52.78;94782.91;5086795;28;20543;-77
2023/06/09 02:48:03;;;;;;;4.32;3.03;;;;;;;16.86;53.03;94786.25;5086893;28;20027;-78
2023/06/09 02:50:28;;;;;;;4.22;2.67;;;;;;;16.91;52.79;94780.00;5087052;28;20016;-78
2023/06/09 02:52:54;;;;;;;3.42;2.80;;;;;;;16.78;52.94;94783.09;5087462;28;20048;-78
2023/06/09 02:55:20;;;;;;;5.85;3.15;;;;;;;16.75;53.04;94786.84;5085456;28;20108;-78
2023/06/09 02:57:46;;;;;;;4.38;3.00;;;;;;;16.76;53.07;94785.59;5087126;28;20040;-78
2023/06/09 03:00:12;;;;;;;5.15;3.10;;;;;;;16.86;53.15;94789.81;5086472;28;20020;-78
2023/06/09 03:02:38;;;;;;;3.28;2.88;;;;;;;16.77;52.91;94787.13;5085920;28;20488;-77
2023/06/09 03:05:05;;;;;;;5.82;3.00;;;;;;;16.73;53.24;94784.53;5085236;28;20039;-78
2023/06/09 03:07:31;;;;;;;3.90;3.08;;;;;;;16.69;53.11;94792.28;5085875;28;20530;-78
2023/06/09 03:09:57;;;;;;;5.30;3.28;;;;;;;16.64;53.35;94781.09;5097678;28;20031;-78
2023/06/09 03:12:22;;;;;;;4.90;3.38;;;;;;;16.53;53.74;94784.47;5087320;28;20025;-78
2023/06/09 03:14:48;;;;;;;5.18;3.22;;;;;;;16.55;53.69;94781.19;5087370;28;20443;-79
2023/06/09 03:17:13;;;;;;;7.40;3.50;;;;;;;16.72;53.12;94788.56;5068735;28;20070;-78
2023/06/09 03:19:38;;;;;;;6.90;3.35;;;;;;;16.64;53.40;94781.09;5086715;28;20020;-78
2023/06/09 03:22:04;;;;;;;6.28;3.03;;;;;;;16.71;53.35;94780.72;5086818;28;20024;-78
2023/06/09 03:24:30;;;;;;;5.57;3.70;;;;;;;16.81;52.97;94787.72;5091638;28;20027;-78
2023/06/09 03:26:56;;;;;;;5.85;3.67;;;;;;;16.88;52.61;94784.53;5085108;28;20035;-78
2023/06/09 03:29:22;;;;;;;6.78;3.33;;;;;;;16.92;52.65;94787.13;5085271;28;20035;-78
2023/06/09 03:31:47;;;;;;;4.53;3.10;;;;;;;17.01;52.68;94786.97;5086299;28;20099;-78
2023/06/09 03:34:13;;;;;;;5.30;3.20;;;;;;;17.02;52.12;94776.63;5085322;28;20024;-78
2023/06/09 03:36:38;;;;;;;6.10;3.55;;;;;;;17.12;52.11;94778.06;5086842;28;20128;-78
2023/06/09 03:39:04;;;;;;;4.05;3.20;;;;;;;17.18;51.94;94778.91;5086255;28;20028;-79
2023/06/09 03:41:29;;;;;;;6.82;3.75;;;;;;;17.27;51.94;94784.34;5086238;28;20400;-78
2023/06/09 03:43:55;;;;;;;5.22;3.33;;;;;;;17.33;52.39;94790.72;5084242;28;20024;-78
2023/06/09 03:46:21;;;;;;;5.60;3.75;;;;;;;17.40;52.39;94792.34;5086754;28;20089;-78
2023/06/09 03:48:46;;;;;;;11.35;4.63;;;;;;;17.44;52.55;94792.91;5084407;28;20020;-79
2023/06/09 03:51:12;;;;;;;9.18;4.22;;;;;;;17.48;52.91;94796.22;5086699;28;20454;-77
2023/06/09 03:53:37;;;;;;;10.07;4.80;;;;;;;17.51;53.01;94796.03;5067338;28;20036;-78
2023/06/09 03:56:03;;;;;;;12.23;3.97;;;;;;;17.57;53.00;94798.88;5085872;28;20024;-77
2023/06/09 03:58:29;;;;;;;6.78;4.47;;;;;;;17.59;52.57;94799.13;5086297;28;20071;-79
2023/06/09 04:00:54;;;;;;;14.90;4.88;;;;;;;17.61;52.82;94796.66;5086179;28;20055;-78
2023/06/09 04:03:23;;;;;;;7.63;4.68;;;;;;;17.62;52.68;94792.63;5084614;28;20031;-78
2023/06/09 04:05:48;;;;;;;8.85;5.00;;;;;;;17.61;52.78;94795.91;5084949;28;20498;-78
2023/06/09 04:08:13;;;;;;;7.50;5.13;;;;;;;17.54;52.99;94799.81;5085603;28;20039;-78
2023/06/09 04:10:40;;;;;;;6.00;4.30;;;;;;;17.62;52.58;94794.63;5082922;28;20024;-78
2023/06/09 04:13:06;;;;;;;8.23;4.22;;;;;;;17.67;52.50;94797.50;5087031;28;20061;-79
2023/06/09 04:15:31;;;;;;;8.20;4.28;;;;;;;17.71;52.58;94800.81;5090513;28;20028;-78
2023/06/09 04:17:57;;;;;;;7.50;4.30;;;;;;;17.74;52.68;94802.66;5091145;28;20442;-78
2023/06/09 04:20:24;;;;;;;7.45;4.90;;;;;;;17.78;52.58;94806.00;5086255;28;20032;-78
2023/06/09 04:22:50;;;;;;;7.90;4.63;;;;;;;17.80;53.18;94810.31;5085030;28;20024;-78
2023/06/09 04:25:16;;;;;;;10.32;5.40;;;;;;;17.81;53.24;94809.03;5084316;28;20039;-77
2023/06/09 04:27:42;;;;;;;8.90;5.15;;;;;;;17.84;53.51;94808.09;5085143;28;20028;-78
2023/06/09 04:30:08;;;;;;;11.60;5.55;;;;;;;17.86;53.45;94813.91;5085305;28;20032;-78
2023/06/09 04:32:34;;;;;;;9.27;5.57;;;;;;;17.92;54.36;94818.28;5084094;28;20107;-78
2023/06/09 04:35:01;;;;;;;14.32;6.30;;;;;;;17.91;54.77;94818.78;5085120;28;20514;-78
2023/06/09 04:37:26;;;;;;;7.82;5.85;;;;;;;17.82;55.51;94822.44;5085434;28;20540;-77
2023/06/09 04:39:52;;;;;;;8.43;5.93;;;;;;;17.89;54.91;94816.50;5084561;28;20024;-78
2023/06/09 04:42:22;;;;;;;9.57;5.63;;;;;;;17.92;54.78;94823.84;5083279;28;20046;-78
2023/06/09 04:44:48;;;;;;;13.05;6.05;;;;;;;17.98;54.58;94829.47;5084413;28;20028;-78
2023/06/09 04:47:17;;;;;;;8.05;5.30;;;;;;;17.98;54.43;94826.69;5085103;28;20040;-77
2023/06/09 04:49:46;;;;;;;9.98;5.35;;;;;;;18.03;53.88;94828.78;5083321;28;20024;-77
2023/06/09 04:52:17;;;;;;;8.63;5.18;;;;;;;18.07;54.48;94828.56;5084732;28;20032;-77
2023/06/09 04:54:44;;;;;;;7.75;5.15;;;;;;;18.12;53.86;94834.19;5083478;28;20665;-77
2023/06/09 04:57:10;;;;;;;10.50;6.30;;;;;;;18.16;53.72;94834.72;5083205;28;20946;-77
2023/06/09 04:59:39;;;;;;;9.48;4.82;;;;;;;18.21;53.77;94836.06;5084970;28;20024;-76
2023/06/09 05:02:04;;;;;;;8.95;4.90;;;;;;;18.26;53.50;94836.13;5084073;28;20086;-78
2023/06/09 05:04:30;;;;;;;12.10;5.70;;;;;;;18.29;52.58;94826.78;5083301;28;20510;-78
2023/06/09 05:06:55;;;;;;;11.18;5.15;;;;;;;18.27;52.29;94826.50;5083872;28;20471;-76
2023/06/09 05:09:21;;;;;;;13.85;5.38;;;;;;;18.32;52.34;94833.38;5084399;28;20028;-78
2023/06/09 05:11:46;;;;;;;8.15;4.97;;;;;;;18.38;52.48;94831.44;5088889;28;20141;-77
2023/06/09 05:14:11;;;;;;;10.93;5.43;;;;;;;18.42;52.38;94822.88;5085327;28;20089;-78
2023/06/09 05:16:37;;;;;;;8.40;5.10;;;;;;;18.43;52.53;94819.59;5085198;28;20073;-78
2023/06/09 05:19:03;;;;;;;11.02;5.45;;;;;;;18.48;52.36;94820.91;5087170;28;20354;-78
2023/06/09 05:21:28;;;;;;;8.70;5.43;;;;;;;18.49;52.47;94811.28;5072627;28;20035;-78
2023/06/09 05:23:54;;;;;;;13.55;5.43;;;;;;;18.55;52.10;94815.66;5087135;28;20260;-77
2023/06/09 05:26:20;;;;;;;8.98;4.88;;;;;;;18.61;51.22;94820.50;5087905;28;20070;-78
2023/06/09 05:28:46;;;;;;;6.88;5.47;;;;;;;18.57;50.77;94818.69;5088887;28;20035;-77
2023/06/09 05:31:11;;;;;;;8.18;4.93;;;;;;;18.60;51.07;94811.41;5087423;28;20020;-77
2023/06/09 05:33:37;;;;;;;10.52;5.47;;;;;;;18.68;51.33;94820.84;5088908;28;20055;-78
2023/06/09 05:36:03;;;;;;;9.45;4.93;;;;;;;18.68;50.93;94815.28;5086610;28;20035;-77
2023/06/09 05:38:29;;;;;;;8.40;4.65;;;;;;;18.74;51.11;94809.75;5088828;28;20116;-77
2023/06/09 05:40:55;;;;;;;11.48;5.30;;;;;;;18.79;50.96;94801.44;5086552;28;20024;-77
2023/06/09 05:43:21;;;;;;;7.50;4.60;;;;;;;18.82;50.69;94817.19;5087426;28;20483;-76
2023/06/09 05:45:46;;;;;;;8.95;4.90;;;;;;;18.90;50.50;94798.00;5087932;28;20032;-77
2023/06/09 05:48:11;;;;;;;8.10;4.88;;;;;;;18.98;50.21;94796.31;5086579;28;20060;-76
2023/06/09 05:50:40;;;;;;;13.13;5.03;;;;;;;19.03;50.08;94798.34;5088277;28;20106;-78
2023/06/09 05:53:05;;;;;;;13.48;5.95;;;;;;;19.10;49.47;94791.56;5087657;28;20020;-78
2023/06/09 05:55:30;;;;;;;10.27;4.78;;;;;;;19.11;50.14;94795.88;5088427;28;20031;-77
2023/06/09 05:57:59;;;;;;;8.07;5.05;;;;;;;19.17;49.86;94798.72;5087335;28;20052;-77
2023/06/09 06:00:29;;;;;;;7.18;4.20;;;;;;;19.22;49.62;94793.16;5088352;28;20498;-76
2023/06/09 06:02:55;;;;;;;8.63;5.00;;;;;;;19.32;49.14;94788.91;5088012;28;20555;-78
2023/06/09 06:05:20;;;;;;;11.02;4.95;;;;;;;19.34;49.14;94791.22;5089763;28;20087;-77
2023/06/09 06:07:45;;;;;;;8.40;3.92;;;;;;;19.37;48.54;94796.53;5090570;28;20035;-78
2023/06/09 06:10:11;;;;;;;8.30;4.05;;;;;;;19.46;48.02;94787.22;5088064;28;20103;-78
2023/06/09 06:12:36;;;;;;;7.05;4.28;;;;;;;19.55;47.54;94789.78;5086683;28;20387;-78
2023/06/09 06:15:02;;;;;;;6.60;3.90;;;;;;;19.62;47.47;94794.19;5087491;28;20020;-78
2023/06/09 06:17:28;;;;;;;11.88;5.47;;;;;;;19.65;47.16;94789.63;5088161;28;20031;-78
2023/06/09 06:19:53;;;;;;;7.10;4.70;;;;;;;19.74;47.66;94792.19;5087233;28;20397;-78
2023/06/09 06:22:18;;;;;;;13.38;4.80;;;;;;;19.81;47.54;94786.13;5090243;28;20035;-79
2023/06/09 06:24:44;;;;;;;8.77;4.40;;;;;;;19.85;47.59;94790.22;5089188;28;20035;-78
2023/06/09 06:27:11;;;;;;;9.80;4.82;;;;;;;19.88;47.59;94794.78;5087430;28;20055;-78
2023/06/09 06:29:38;;;;;;;8.18;4.65;;;;;;;19.95;47.79;94796.31;5087525;28;20488;-78
2023/06/09 06:32:07;;;;;;;9.25;5.13;;;;;;;20.03;47.51;94793.84;5087103;28;20031;-78
2023/06/09 06:34:33;;;;;;;7.68;5.13;;;;;;;20.12;47.46;94799.94;5085655;28;20111;-78
2023/06/09 06:36:58;;;;;;;8.40;4.28;;;;;;;20.24;47.12;94794.38;5087002;28;20111;-79
2023/06/09 06:39:23;;;;;;;8.50;5.07;;;;;;;20.17;46.99;94788.03;5069257;28;20027;-79
2023/06/09 06:41:49;;;;;;;9.48;5.35;;;;;;;20.33;46.90;94783.75;5085939;28;20048;-79
2023/06/09 06:44:14;;;;;;;10.07;4.97;;;;;;;20.43;47.04;94789.88;5087632;28;20039;-78
2023/06/09 06:46:40;;;;;;;7.70;5.18;;;;;;;20.47;46.57;94789.63;5085865;28;20124;-78
2023/06/09 06:49:05;;;;;;;8.73;4.70;;;;;;;20.56;46.74;94786.59;5085594;28;20020;-79
2023/06/09 06:51:31;;;;;;;13.52;4.85;;;;;;;20.62;47.00;94790.16;5087106;28;20103;-78
2023/06/09 06:53:56;;;;;;;11.50;5.55;;;;;;;20.73;46.82;94792.97;5087285;28;20407;-78
2023/06/09 06:56:22;;;;;;;7.03;5.57;;;;;;;20.82;45.89;94787.13;5068932;28;20077;-78
2023/06/09 06:58:48;;;;;;;7.78;5.03;;;;;;;20.87;45.22;94789.19;5089564;28;20020;-78
2023/06/09 07:01:24;;;;;;;7.95;5.38;;;;;;;20.98;45.25;94788.38;5093235;28;20024;-78
2023/06/09 07:03:52;;;;;;;9.60;4.63;;;;;;;21.04;45.23;94783.56;5087261;28;20107;-78
2023/06/09 07:06:19;;;;;;;9.32;4.70;;;;;;;21.10;45.70;94784.31;5085095;28;20048;-78
2023/06/09 07:08:44;;;;;;;7.72;4.80;;;;;;;21.20;45.56;94785.56;5086859;28;20390;-78
2023/06/09 07:11:10;;;;;;;9.32;5.05;;;;;;;21.30;45.63;94788.88;5084131;28;20033;-78
2023/06/09 07:13:35;;;;;;;7.25;4.85;;;;;;;21.35;45.26;94790.91;5085205;28;20020;-77
2023/06/09 07:16:01;;;;;;;7.95;4.72;;;;;;;21.43;45.18;94775.13;5084812;28;20028;-77
2023/06/09 07:18:29;;;;;;;7.65;5.20;;;;;;;21.53;45.21;94778.41;5085388;28;20510;-78
2023/06/09 07:20:54;;;;;;;9.27;4.70;;;;;;;21.66;44.72;94775.06;5086825;28;20072;-78
2023/06/09 07:23:20;;;;;;;12.85;5.40;;;;;;;21.73;44.98;94780.13;5084853;28;20489;-77
2023/06/09 07:25:45;;;;;;;9.82;4.90;;;;;;;21.81;44.65;94783.16;5086043;28;20046;-77
2023/06/09 07:28:10;;;;;;;11.60;5.05;;;;;;;21.91;44.64;94787.19;5090288;28;20016;-79
2023/06/09 07:30:39;;;;;;;12.70;5.53;;;;;;;22.03;44.15;94785.09;5086806;28;20109;-78
2023/06/09 07:33:05;;;;;;;13.57;4.97;;;;;;;22.14;43.90;94783.03;5084572;28;20430;-78
2023/06/09 07:35:30;;;;;;;9.38;4.78;;;;;;;22.23;43.67;94777.13;5086221;28;20028;-78
2023/06/09 07:37:56;;;;;;;8.60;4.45;;;;;;;22.36;43.43;94775.78;5086001;28;20090;-78
2023/06/09 07:40:22;;;;;;;10.13;5.22;;;;;;;22.41;43.52;94777.78;5086142;28;20043;-78
2023/06/09 07:42:48;;;;;;;10.10;4.80;;;;;;;22.47;43.29;94770.88;5084772;28;20457;-80
2023/06/09 07:45:14;;;;;;;6.75;4.88;;;;;;;22.55;43.31;94773.88;5084101;28;20051;-79
2023/06/09 07:47:39;;;;;;;7.07;4.25;;;;;;;22.70;42.79;94771.47;5086201;28;20062;-78
2023/06/09 07:50:06;;;;;;;9.20;4.72;;;;;;;22.79;42.53;94765.53;5085772;28;20058;-78
2023/06/09 07:52:32;;;;;;;5.88;4.15;;;;;;;22.83;42.12;94767.31;5086788;28;20079;-78
2023/06/09 07:54:57;;;;;;;8.35;3.80;;;;;;;22.92;42.47;94762.16;5095510;28;20290;-77
2023/06/09 07:57:23;;;;;;;7.72;4.47;;;;;;;23.05;42.47;94765.13;5086275;28;20062;-78
2023/06/09 07:59:48;;;;;;;7.97;3.92;;;;;;;23.21;42.27;94762.66;5085666;28;20043;-79
2023/06/09 08:02:13;;;;;;;7.13;4.20;;;;;;;23.27;42.03;94760.56;5086053;28;20031;-78
2023/06/09 08:04:42;;;;;;;10.65;4.22;;;;;;;23.39;41.88;94761.19;5084473;28;20480;-78
2023/06/09 08:07:08;;;;;;;8.80;4.18;;;;;;;23.45;42.07;94759.09;5083915;28;20054;-77
2023/06/09 08:09:34;;;;;;;9.32;4.25;;;;;;;23.56;41.58;94756.94;5084086;28;20024;-78
2023/06/09 08:11:59;;;;;;;6.15;4.07;;;;;;;23.72;41.42;94760.88;5085114;28;20027;-78
2023/06/09 08:14:25;;;;;;;8.20;4.10;;;;;;;23.77;41.13;94757.22;5085828;28;20486;-78
2023/06/09 08:16:50;;;;;;;6.20;4.13;;;;;;;23.72;41.34;94758.06;5085424;28;20107;-78
2023/06/09 08:19:16;;;;;;;8.57;4.20;;;;;;;23.83;41.18;94759.97;5085533;28;20387;-78
2023/06/09 08:21:43;;;;;;;6.72;3.90;;;;;;;24.01;41.02;94762.03;5083951;28;20020;-78
2023/06/09 08:24:10;;;;;;;5.75;3.78;;;;;;;24.19;40.12;94756.97;5085457;28;20031;-78
2023/06/09 08:26:35;;;;;;;9.35;4.15;;;;;;;24.29;39.69;94746.88;5083720;28;20032;-78
2023/06/09 08:29:03;;;;;;;6.22;3.90;;;;;;;24.40;40.18;94754.41;5085029;28;20444;-78
2023/06/09 08:31:28;;;;;;;5.63;4.82;;;;;;;24.55;40.24;94751.91;5087198;28;20024;-78
2023/06/09 08:33:54;;;;;;;8.68;4.20;;;;;;;24.67;39.72;94746.84;5086191;28;20024;-78
2023/06/09 08:36:20;;;;;;;9.10;4.65;;;;;;;24.86;39.34;94750.38;5084309;28;20032;-78
2023/06/09 08:38:46;;;;;;;7.82;4.35;;;;;;;24.98;39.29;94748.13;5083683;28;20028;-78
2023/06/09 08:41:12;;;;;;;7.85;4.20;;;;;;;25.13;39.38;94745.63;5083786;28;20024;-77
2023/06/09 08:43:37;;;;;;;7.25;4.38;;;;;;;25.26;39.07;94750.50;5066682;28;20028;-79
2023/06/09 08:46:05;;;;;;;7.63;4.20;;;;;;;25.42;38.33;94749.44;5083391;28;20035;-78
2023/06/09 08:48:32;;;;;;;5.63;3.72;;;;;;;25.57;37.27;94744.00;5090064;28;20020;-78
2023/06/09 08:50:58;;;;;;;6.03;4.10;;;;;;;25.67;36.93;94733.84;5084465;28;20052;-78
2023/06/09 08:53:24;;;;;;;6.30;4.22;;;;;;;25.74;36.76;94732.47;5085407;28;20538;-78
2023/06/09 08:55:51;;;;;;;8.02;4.07;;;;;;;25.86;36.70;94733.75;5082685;28;20044;-78
2023/06/09 08:58:17;;;;;;;7.63;5.78;;;;;;;26.02;36.51;94726.25;5084084;28;20107;-78
2023/06/09 09:00:43;;;;;;;8.40;5.05;;;;;;;26.18;36.31;94727.19;5089726;28;20032;-78
2023/06/09 09:03:08;;;;;;;7.32;3.65;;;;;;;26.37;35.92;94729.84;5086313;28;20020;-78
2023/06/09 09:05:34;;;;;;;7.57;4.35;;;;;;;26.45;35.67;94727.91;5084706;28;20083;-78
2023/06/09 09:07:59;;;;;;;8.10;4.93;;;;;;;26.52;36.03;94720.84;5084318;28;20024;-78
2023/06/09 09:10:25;;;;;;;8.45;4.65;;;;;;;26.65;35.66;94727.16;5085106;28;20031;-78
2023/06/09 09:12:53;;;;;;;9.13;4.30;;;;;;;26.84;35.12;94723.38;5083992;28;20497;-77
2023/06/09 09:15:19;;;;;;;6.53;3.90;;;;;;;27.01;34.78;94726.53;5083809;28;20094;-79
2023/06/09 09:17:46;;;;;;;8.30;5.13;;;;;;;27.19;34.57;94722.03;5084467;28;20472;-78
2023/06/09 09:20:11;;;;;;;8.27;3.90;;;;;;;27.31;34.15;94711.97;5083412;28;20020;-78
2023/06/09 09:22:50;;;;;;;10.02;5.47;;;;;;;27.40;34.12;94705.06;5084515;28;20031;-78
2023/06/09 09:25:27;;;;;;;10.57;5.82;;;;;;;27.55;34.21;94702.34;5082831;28;20020;-78
2023/06/09 09:28:04;;;;;;;7.68;4.97;;;;;;;27.74;33.81;94700.00;5083428;28;20020;-78
2023/06/09 09:30:49;;;;;;;7.25;4.32;;;;;;;27.90;34.04;94700.84;5082941;28;20134;-78
2023/06/09 09:33:18;;;;;;;9.32;3.97;;;;;;;27.96;33.39;94704.28;5083216;28;20073;-78
2023/06/09 09:35:45;;;;;;;6.95;4.50;;;;;;;28.03;33.71;94699.97;5085087;28;20027;-77
2023/06/09 09:38:14;;;;;;;6.47;4.45;;;;;;;28.04;32.66;94695.81;5084712;28;20103;-78
2023/06/09 09:40:47;;;;;;;6.43;3.78;;;;;;;28.23;32.27;94695.53;5087306;28;20049;-77
2023/06/09 09:43:13;;;;;;;5.05;4.05;;;;;;;28.31;32.25;94690.66;5083623;28;20052;-77
2023/06/09 09:45:41;;;;;;;7.50;4.53;;;;;;;28.52;32.23;94691.28;5082774;28;20036;-77
2023/06/09 09:48:11;;;;;;;9.85;4.20;;;;;;;28.69;32.33;94687.94;5082961;28;20514;-78
2023/06/09 09:50:38;;;;;;;7.95;4.70;;;;;;;28.86;31.39;94693.03;5083123;28;20024;-78
2023/06/09 09:53:06;;;;;;;8.15;4.57;;;;;;;28.93;30.93;94688.72;5084215;28;20082;-78
2023/06/09 09:55:37;;;;;;;5.18;3.90;;;;;;;29.05;30.92;94690.63;5082858;28;20024;-78
2023/06/09 09:58:07;;;;;;;5.97;4.20;;;;;;;29.27;30.85;94688.34;5083191;28;20517;-78
2023/06/09 10:00:35;;;;;;;7.72;4.18;;;;;;;29.36;31.14;94682.88;5084178;28;20044;-77
2023/06/09 10:03:02;;;;;;;6.32;3.88;;;;;;;29.44;29.73;94677.19;5084362;28;20036;-78
2023/06/09 10:05:30;;;;;;;7.35;4.00;;;;;;;29.57;30.38;94676.25;5082771;28;20035;-78
2023/06/09 10:07:56;;;;;;;6.18;4.25;;;;;;;29.77;29.98;94675.25;5085417;28;20024;-78
2023/06/09 10:10:22;;;;;;;6.75;4.18;;;;;;;29.91;29.46;94680.69;5087039;28;20098;-77
2023/06/09 10:12:48;;;;;;;5.07;3.92;;;;;;;30.14;29.22;94675.69;5086258;28;20170;-77
2023/06/09 10:15:14;;;;;;;6.72;4.60;;;;;;;30.27;29.82;94681.09;5086908;28;20028;-77
2023/06/09 10:17:41;;;;;;;7.45;4.32;;;;;;;30.41;29.08;94670.28;5086181;28;20032;-78
2023/06/09 10:20:08;;;;;;;10.70;5.43;;;;;;;30.61;29.25;94674.84;5069955;28;20039;-77
2023/06/09 10:22:34;;;;;;;8.38;3.90;;;;;;;30.85;29.32;94670.59;5087680;28;20024;-78
2023/06/09 10:25:00;;;;;;;8.23;3.97;;;;;;;30.97;28.36;94675.78;5069436;28;20058;-77
2023/06/09 10:27:26;;;;;;;6.00;4.00;;;;;;;31.07;27.82;94668.88;5087722;28;20028;-77
2023/06/09 10:29:52;;;;;;;4.43;3.60;;;;;;;31.23;27.24;94669.50;5086080;28;20083;-78
2023/06/09 10:32:21;;;;;;;5.82;3.10;;;;;;;31.34;27.14;94663.38;5088273;28;20028;-77
2023/06/09 10:34:49;;;;;;;6.93;4.50;;;;;;;31.38;27.32;94666.56;5091450;28;20189;-77
2023/06/09 10:37:29;;;;;;;6.88;4.15;;;;;;;31.35;27.10;94662.03;5087074;28;20115;-78
2023/06/09 10:40:28;;;;;;;6.15;4.00;;;;;;;31.52;27.08;94663.38;5087303;28;20035;-78
2023/06/09 10:43:10;;;;;;;5.18;3.55;;;;;;;31.67;26.73;94655.47;5056812;28;20039;-77
2023/06/09 10:45:49;;;;;;;7.90;3.70;;;;;;;31.74;26.52;94648.19;5086248;28;20028;-77
2023/06/09 10:48:53;;;;;;;4.80;3.40;;;;;;;31.91;26.63;94651.06;5087518;28;20055;-78
2023/06/09 10:51:25;;;;;;;6.65;3.67;;;;;;;32.06;27.16;94652.19;5086398;28;20684;-77
2023/06/09 10:54:17;;;;;;;6.22;3.60;;;;;;;32.23;26.11;94655.00;5087774;28;20028;-77
2023/06/09 10:56:46;;;;;;;5.32;3.60;;;;;;;32.38;26.08;94640.59;5086880;28;20391;-78
2023/06/09 10:59:27;;;;;;;8.80;4.00;;;;;;;32.54;25.83;94644.00;5085913;28;20062;-78
2023/06/09 11:02:11;;;;;;;6.93;3.50;;;;;;;32.55;24.81;94645.50;5085620;28;20463;-79
2023/06/09 11:04:46;;;;;;;5.18;3.13;;;;;;;32.49;25.50;94623.00;5095015;28;20032;-78
2023/06/09 11:07:16;;;;;;;4.20;3.08;;;;;;;32.57;25.23;94631.41;5089211;28;20518;-77
2023/06/09 11:09:48;;;;;;;5.90;3.30;;;;;;;32.65;25.08;94634.16;5086615;28;20101;-77
2023/06/09 11:12:36;;;;;;;13.05;6.90;;;;;;;32.68;25.04;94635.81;5087131;28;20024;-77
2023/06/09 11:15:02;;;;;;;16.60;9.40;;;;;;;32.60;24.80;94624.56;5086875;28;20035;-78
2023/06/09 11:17:37;;;;;;;13.68;7.57;;;;;;;32.64;25.57;94621.28;5085354;28;20059;-77
2023/06/09 11:20:06;;;;;;;7.43;4.22;;;;;;;32.82;24.50;94621.97;5086366;28;20066;-78
2023/06/09 11:22:51;;;;;;;9.02;5.45;;;;;;;32.85;23.87;94615.06;5086354;28;20024;-77
2023/06/09 11:25:17;;;;;;;7.95;4.72;;;;;;;32.84;24.56;94617.16;5072346;28;20556;-77
2023/06/09 11:28:03;;;;;;;5.90;3.70;;;;;;;32.97;23.47;94618.88;5090849;28;20024;-77
2023/06/09 11:30:30;;;;;;;7.20;3.63;;;;;;;33.04;23.64;94629.41;5073388;28;20048;-77
2023/06/09 11:33:03;;;;;;;7.05;4.03;;;;;;;33.18;23.50;94616.25;5086784;28;20756;-77